Pagina principale
METAR-TAF:

METAR-TAF

Aeroporti :

Oxford, Inghilterra

latitudine: 51-50-13N, longitudine: 1-19-12W, altezza: 82 m

Osservazione

Il bollettino è stato emesso 8 ore e 52 minuti fa, alle 20:50 UTC
Vento 10 kt da nord/nord-est
Temperature 7°C
Umidità 100%
Pressione 1013 hPa
Visibilità: 3500 m
Nubi sparse ad un'altezza di 600 ft
Nubi sparse ad un'altezza di 800 ft
Nuvoloso ad un'altezza di 1000 ft
pioviggine debole, foschia

METAR: EGTK 172050Z 02010KT 3500 -DZ BR SCT006 SCT008 BKN010 07/07 Q1013

Ora: 05:42 (05:42 UTC)

Previsione

Il bollettino è stato emesso 8 ore e 39 minuti fa, alle 21:03 UTC
Previsione valida dal 17 alle 21 UTC al 17 alle 22 UTC
Vento 9 kt da nord/nord-est
Visibilità: 3000 m
Nuvoloso ad un'altezza di 1000 ft
foschia
Probabilità 30% :
Temporaneamente
dal 17 alle 21 UTC al 17 alle 22 UTC
Visibilità: 6000 m
Nuvoloso ad un'altezza di 300 ft
pioggia, pioviggine

TAF: EGTK 172103Z 1721/1722 02009KT 3000 BR BKN010 PROB30 TEMPO 1721/1722 6000 RADZ BKN003

Osservazioni e previsioni meteorologiche di più di 4000 aeroporti (messaggi METAR e TAF).

Le stazioni disponibili sono rappresentate dai dischi gialli e rossi sulla carta.

Puntare il mouse per vedere il nome della stazione.

Clicca sopra per visualizzare le osservazioni e previsioni meteorologiche.

Per cambiare la mappa : fare clic sui pulsanti verdi con una croce nera per ingrandire, il pulsante verde con un trattino per diminuire, o sulla freccia verde per le mappe adiacenti.


METAR-TAF: